Time;durP1;ratioP1;P1;durP2;ratioP2;P2;SDS_P1;SDS_P2;PMS_P1;PMS_P2;Temp;Humidity;BMP_temperature;BMP_pressure;BME280_temperature;BME280_humidity;BME280_pressure;Samples;Min_cycle;Max_cycle;Signal;HPM_P1;HPM_P2
2022/09/24 00:00:39;;;;;;;4.90;4.50;;;;;;;20.54;37.58;95379.16;6165151;28;103468;-77
2022/09/24 00:03:49;;;;;;;4.37;4.07;;;;;;;20.56;37.63;95387.63;6165478;28;103027;-78
2022/09/24 00:06:53;;;;;;;4.67;4.37;;;;;;;20.54;37.60;95379.16;6162657;28;104910;-77
2022/09/24 00:09:56;;;;;;;4.13;3.83;;;;;;;20.56;37.88;95374.34;6162702;28;102684;-78
2022/09/24 00:13:01;;;;;;;4.87;4.47;;;;;;;20.53;37.61;95380.25;6165363;28;103384;-75
2022/09/24 00:16:07;;;;;;;4.10;3.80;;;;;;;20.51;37.68;95377.09;6165356;28;103322;-77
2022/09/24 00:19:11;;;;;;;4.80;4.40;;;;;;;20.50;37.27;95380.78;6159175;28;106128;-77
2022/09/24 00:22:14;;;;;;;4.97;4.57;;;;;;;20.52;37.60;95378.66;6165265;28;103075;-78
2022/09/24 00:28:39;;;;;;;4.40;4.10;;;;;;;20.53;37.37;95386.34;6163325;28;103473;-75
2022/09/24 00:31:43;;;;;;;3.50;3.30;;;;;;;20.50;37.44;95383.44;6156953;28;104305;-76
2022/09/24 00:34:46;;;;;;;3.87;3.57;;;;;;;20.51;37.44;95377.09;6163843;28;105697;-76
2022/09/24 00:37:49;;;;;;;4.30;4.00;;;;;;;20.46;37.65;95377.13;6163633;28;104011;-76
2022/09/24 00:40:52;;;;;;;4.17;3.87;;;;;;;20.48;37.45;95385.59;6160728;28;105056;-77
2022/09/24 00:43:58;;;;;;;4.37;4.07;;;;;;;20.49;37.68;95387.19;6159703;28;103199;-76
2022/09/24 00:47:05;;;;;;;4.00;3.70;;;;;;;20.50;37.64;95380.78;6162887;28;103469;-76
2022/09/24 00:50:17;;;;;;;4.53;4.23;;;;;;;20.48;37.33;95380.28;6163585;28;102985;-76
2022/09/24 00:53:27;;;;;;;3.80;3.50;;;;;;;20.49;37.29;95385.31;6156265;28;103253;-76
2022/09/24 00:56:32;;;;;;;4.70;4.30;;;;;;;20.47;37.48;95371.53;6168109;28;103500;-76
2022/09/24 00:59:38;;;;;;;4.03;3.73;;;;;;;20.48;37.62;95380.28;6170738;28;104356;-76
2022/09/24 01:02:44;;;;;;;4.20;3.90;;;;;;;20.42;37.39;95376.91;6171719;28;103333;-76
2022/09/24 01:05:48;;;;;;;4.00;3.70;;;;;;;20.45;37.31;95365.72;6164564;28;103242;-76
2022/09/24 01:08:51;;;;;;;4.40;4.00;;;;;;;20.44;37.58;95358.03;6171769;28;104540;-75
2022/09/24 01:12:03;;;;;;;3.77;3.47;;;;;;;20.47;37.35;95365.41;6171034;28;103427;-76
2022/09/24 01:15:18;;;;;;;4.57;4.17;;;;;;;20.43;37.35;95364.41;6168151;28;103133;-76
2022/09/24 01:18:31;;;;;;;4.03;3.73;;;;;;;20.42;37.38;95360.19;6168226;28;106327;-75
2022/09/24 01:21:40;;;;;;;3.93;3.70;;;;;;;20.45;37.62;95367.56;6171500;28;106199;-76
2022/09/24 01:24:56;;;;;;;4.30;3.90;;;;;;;20.43;37.14;95369.75;6171210;28;103671;-76
2022/09/24 01:28:19;;;;;;;4.10;3.80;;;;;;;20.44;37.36;95358.03;6164162;28;105250;-77
2022/09/24 01:31:29;;;;;;;4.23;3.90;;;;;;;20.39;37.22;95355.44;6169833;28;103017;-76
2022/09/24 01:34:38;;;;;;;4.17;3.87;;;;;;;20.42;37.39;95362.84;6170784;28;103646;-75
2022/09/24 01:37:45;;;;;;;3.83;3.63;;;;;;;20.41;37.34;95363.91;6168599;28;103805;-76
2022/09/24 01:40:51;;;;;;;3.63;3.40;;;;;;;20.39;37.42;95364.22;6167593;28;105903;-75
2022/09/24 01:43:54;;;;;;;4.50;4.20;;;;;;;20.38;37.23;95365.28;6170437;28;103578;-76
2022/09/24 01:46:59;;;;;;;3.60;3.40;;;;;;;20.32;37.22;95358.44;6170819;28;105052;-76
2022/09/24 01:50:04;;;;;;;3.93;3.63;;;;;;;20.36;37.26;95371.97;6163320;28;103633;-76
2022/09/24 01:53:11;;;;;;;4.93;4.53;;;;;;;20.37;37.32;95363.72;6170666;28;103420;-75
2022/09/24 01:56:18;;;;;;;4.03;3.73;;;;;;;20.36;37.32;95366.66;6169964;28;102683;-76
2022/09/24 01:59:28;;;;;;;3.97;3.67;;;;;;;20.31;37.36;95360.31;6170191;28;103077;-76
2022/09/24 02:02:37;;;;;;;4.40;4.10;;;;;;;20.33;37.46;95368.00;6163513;28;103055;-76
2022/09/24 02:05:49;;;;;;;3.27;3.07;;;;;;;20.36;37.16;95371.97;6170582;28;103057;-76
2022/09/24 02:08:52;;;;;;;3.40;3.20;;;;;;;20.37;37.30;95378.88;6165467;28;103506;-77
2022/09/24 02:11:58;;;;;;;3.80;3.50;;;;;;;20.36;37.26;95382.59;6163044;28;103244;-77
2022/09/24 02:15:06;;;;;;;4.60;4.20;;;;;;;20.34;37.33;95390.06;6163388;28;105363;-76
2022/09/24 02:18:14;;;;;;;4.10;3.70;;;;;;;20.33;37.18;95391.91;6166042;28;103884;-76
2022/09/24 02:21:19;;;;;;;4.00;3.70;;;;;;;20.35;37.25;95391.66;6166391;28;103144;-77
2022/09/24 02:24:26;;;;;;;4.43;4.13;;;;;;;20.31;37.11;95402.81;6159850;28;103918;-76
2022/09/24 02:27:30;;;;;;;4.17;3.77;;;;;;;20.32;37.21;95404.41;6165992;28;103245;-76
2022/09/24 02:30:40;;;;;;;3.90;3.60;;;;;;;20.28;37.21;95406.06;6165926;28;103072;-77
2022/09/24 02:37:11;;;;;;;3.97;3.67;;;;;;;20.30;37.12;95413.75;6159448;28;104295;-76
2022/09/24 02:40:15;;;;;;;3.80;3.50;;;;;;;20.26;37.32;95415.41;6165812;28;103047;-76
2022/09/24 02:43:18;;;;;;;3.90;3.60;;;;;;;20.27;37.03;95415.09;6165767;28;103335;-76
2022/09/24 02:46:22;;;;;;;4.27;3.97;;;;;;;20.26;37.22;95408.22;6160876;28;103754;-77
2022/09/24 02:49:27;;;;;;;3.70;3.40;;;;;;;20.25;37.23;95417.25;6164491;28;104231;-76
2022/09/24 02:52:30;;;;;;;3.60;3.40;;;;;;;20.24;37.03;95413.03;6165146;28;103132;-76
2022/09/24 02:55:33;;;;;;;3.80;3.50;;;;;;;20.24;37.24;95421.00;6164521;28;104551;-76
2022/09/24 02:58:37;;;;;;;3.40;3.20;;;;;;;20.27;37.08;95423.09;6159114;28;103608;-76
2022/09/24 03:01:40;;;;;;;5.20;3.60;;;;;;;20.25;37.01;95424.44;6165222;28;103549;-76
2022/09/24 03:04:46;;;;;;;4.97;4.60;;;;;;;20.23;36.94;95424.69;6164395;28;103360;-76
2022/09/24 03:07:49;;;;;;;4.40;4.10;;;;;;;20.19;36.97;95429.00;6164786;28;103152;-76
2022/09/24 03:10:54;;;;;;;4.30;4.00;;;;;;;20.22;37.05;95425.78;6159091;28;104892;-76
2022/09/24 03:13:58;;;;;;;4.60;4.20;;;;;;;20.22;37.07;95425.00;6165283;28;103060;-78
2022/09/24 03:17:01;;;;;;;4.00;3.70;;;;;;;20.19;37.12;95414.94;6164683;28;104093;-77
2022/09/24 03:20:07;;;;;;;4.27;3.97;;;;;;;20.23;37.22;95424.69;6161905;28;103606;-76
2022/09/24 03:23:10;;;;;;;5.20;4.80;;;;;;;20.21;37.00;95418.88;6161255;28;103381;-76
2022/09/24 03:26:16;;;;;;;4.93;4.53;;;;;;;20.16;37.01;95418.91;6164853;28;103916;-76
2022/09/24 03:30:58;;;;;;;4.20;3.90;;;;;;;20.18;36.99;95422.13;6164909;28;103742;-77
2022/09/24 03:32:42;;;;;;;4.23;3.93;;;;;;;20.19;37.06;95425.56;6157414;28;104533;-76
2022/09/24 03:35:46;;;;;;;4.30;3.93;;;;;;;20.17;37.28;95436.47;6164398;28;103059;-76
2022/09/24 03:38:53;;;;;;;4.40;4.10;;;;;;;20.18;37.06;95438.06;6164528;28;103294;-76
2022/09/24 03:41:56;;;;;;;4.70;4.30;;;;;;;20.17;37.00;95444.44;6164656;28;104482;-76
2022/09/24 03:44:59;;;;;;;4.40;4.00;;;;;;;20.15;37.00;95429.84;6158499;28;103408;-77
2022/09/24 03:48:03;;;;;;;4.53;4.23;;;;;;;20.14;36.87;95445.00;6164115;28;103057;-76
2022/09/24 03:51:09;;;;;;;4.13;3.83;;;;;;;20.18;36.80;95445.25;6164055;28;106007;-76
2022/09/24 03:54:12;;;;;;;4.30;4.00;;;;;;;20.15;36.86;95449.22;6160671;28;103018;-77
2022/09/24 03:57:16;;;;;;;4.60;4.20;;;;;;;20.16;37.00;95447.34;6161381;28;103544;-76
2022/09/24 04:00:19;;;;;;;6.10;4.23;;;;;;;20.14;36.96;95447.66;6164343;28;106907;-76
2022/09/24 04:03:22;;;;;;;4.90;4.50;;;;;;;20.10;36.69;95449.28;6164650;28;103005;-75
2022/09/24 04:06:27;;;;;;;3.67;3.47;;;;;;;20.15;37.03;95451.09;6157308;28;103599;-76
2022/09/24 04:09:30;;;;;;;3.77;3.50;;;;;;;20.14;36.91;95455.63;6164406;28;103342;-76
2022/09/24 04:12:33;;;;;;;4.60;4.20;;;;;;;20.12;36.98;95452.44;6164514;28;103327;-76
2022/09/24 04:15:36;;;;;;;4.10;3.80;;;;;;;20.13;36.73;95458.56;6164334;28;103350;-76
2022/09/24 04:18:40;;;;;;;4.20;3.90;;;;;;;20.12;36.70;95454.31;6159580;28;103008;-75
2022/09/24 04:21:45;;;;;;;4.23;3.93;;;;;;;20.11;36.93;95456.19;6164054;28;102954;-77
2022/09/24 04:24:48;;;;;;;4.30;4.00;;;;;;;20.10;36.95;95465.22;6163656;28;106413;-75
2022/09/24 04:27:53;;;;;;;4.53;4.23;;;;;;;20.09;36.77;95461.00;6162716;28;102929;-75
2022/09/24 04:30:56;;;;;;;4.03;3.73;;;;;;;20.09;36.88;95461.00;6159188;28;103118;-75
2022/09/24 04:34:00;;;;;;;4.80;4.50;;;;;;;20.11;36.95;95474.78;6163526;28;103412;-76
2022/09/24 04:37:05;;;;;;;4.33;3.93;;;;;;;20.10;36.83;95481.16;6162933;28;103222;-76
2022/09/24 04:40:11;;;;;;;4.13;3.83;;;;;;;20.07;36.93;95476.44;6157786;28;103047;-75
2022/09/24 04:43:14;;;;;;;4.10;3.80;;;;;;;20.06;36.75;95484.69;6163538;28;103539;-75
2022/09/24 04:46:18;;;;;;;4.20;3.90;;;;;;;20.09;36.80;95484.13;6163749;28;103171;-76
2022/09/24 04:49:21;;;;;;;4.30;4.00;;;;;;;20.07;36.97;95475.63;6163672;28;105828;-76
2022/09/24 04:52:28;;;;;;;5.00;4.60;;;;;;;20.08;36.81;95477.22;6157489;28;103439;-76
2022/09/24 04:55:32;;;;;;;4.20;3.90;;;;;;;20.05;36.98;95475.91;6163794;28;103200;-76
2022/09/24 04:58:35;;;;;;;4.73;4.33;;;;;;;20.03;36.73;95475.41;6164541;28;103297;-76
2022/09/24 05:01:38;;;;;;;4.20;3.90;;;;;;;20.08;36.83;95474.56;6163845;28;102979;-76
2022/09/24 05:04:42;;;;;;;4.57;4.17;;;;;;;20.08;36.85;95478.00;6158328;28;104621;-75
2022/09/24 05:07:48;;;;;;;4.10;3.80;;;;;;;20.05;36.63;95481.22;6163512;28;103579;-77
2022/09/24 05:10:52;;;;;;;4.40;4.10;;;;;;;20.06;36.64;95482.03;6164588;28;103336;-75
2022/09/24 05:13:56;;;;;;;4.50;4.10;;;;;;;20.07;36.74;95487.06;6161256;28;105022;-77
2022/09/24 05:16:59;;;;;;;3.90;3.70;;;;;;;20.07;36.69;95481.75;6163570;28;103752;-76
2022/09/24 05:20:02;;;;;;;4.03;3.73;;;;;;;20.06;36.78;95482.03;6164441;28;103569;-76
2022/09/24 05:23:07;;;;;;;4.70;4.30;;;;;;;20.07;36.50;95484.41;6164632;28;103134;-76
2022/09/24 05:29:30;;;;;;;4.47;4.17;;;;;;;20.04;36.65;95482.31;6164005;28;105431;-76
2022/09/24 05:32:34;;;;;;;4.30;4.00;;;;;;;20.09;36.51;95489.44;6163540;28;103591;-76
2022/09/24 05:35:37;;;;;;;4.23;3.93;;;;;;;20.09;36.76;95489.44;6163840;28;103311;-75
2022/09/24 05:38:42;;;;;;;3.90;3.60;;;;;;;20.09;36.77;95492.88;6156456;28;102945;-76
2022/09/24 05:41:45;;;;;;;4.30;3.90;;;;;;;20.10;36.85;95494.44;6165161;28;103325;-76
2022/09/24 05:44:48;;;;;;;4.13;3.83;;;;;;;20.13;36.67;95501.84;6168272;28;103509;-75
2022/09/24 05:47:54;;;;;;;4.50;4.10;;;;;;;20.13;36.58;95490.44;6165146;28;104534;-75
2022/09/24 05:51:00;;;;;;;4.57;4.23;;;;;;;20.16;36.73;95501.28;6165891;28;105196;-76
2022/09/24 05:54:05;;;;;;;4.57;4.17;;;;;;;20.16;36.82;95501.28;6167886;28;105117;-76
2022/09/24 05:57:08;;;;;;;4.27;3.97;;;;;;;20.23;36.50;95498.31;6166967;28;106087;-76
2022/09/24 06:00:12;;;;;;;5.40;4.93;;;;;;;20.28;36.74;95504.38;6161973;28;103044;-77
2022/09/24 06:03:17;;;;;;;4.53;4.13;;;;;;;20.37;36.42;95506.44;6167519;28;103254;-76
2022/09/24 06:06:21;;;;;;;4.07;3.77;;;;;;;20.40;36.06;95500.56;6167383;28;105931;-75
2022/09/24 06:09:35;;;;;;;4.53;4.23;;;;;;;20.48;36.23;95506.03;6168710;28;103335;-77
2022/09/24 06:12:39;;;;;;;4.60;4.30;;;;;;;20.57;36.26;95511.53;6161996;28;103154;-76
2022/09/24 06:15:42;;;;;;;4.87;4.40;;;;;;;20.64;35.68;95503.97;6166912;28;103319;-76
2022/09/24 06:18:46;;;;;;;4.40;4.10;;;;;;;20.73;36.16;95520.91;6169613;28;103415;-76
2022/09/24 06:21:50;;;;;;;4.13;3.73;;;;;;;20.78;35.65;95512.84;6163653;28;103535;-76
2022/09/24 06:24:55;;;;;;;4.53;4.23;;;;;;;20.88;36.01;95518.03;6165342;28;103539;-76
2022/09/24 06:28:00;;;;;;;3.97;3.67;;;;;;;20.99;35.61;95517.91;6166770;28;103040;-76
2022/09/24 06:31:05;;;;;;;4.43;4.13;;;;;;;21.12;35.54;95517.22;6167079;28;103244;-76
2022/09/24 06:34:09;;;;;;;4.53;4.13;;;;;;;21.21;35.53;95510.19;6160358;28;106233;-76
2022/09/24 06:37:12;;;;;;;4.60;4.30;;;;;;;21.42;35.25;95511.47;6168157;28;103093;-77
2022/09/24 06:40:17;;;;;;;4.20;3.90;;;;;;;21.48;35.25;95512.94;6166232;28;103360;-76
2022/09/24 06:43:20;;;;;;;3.63;3.43;;;;;;;21.52;35.48;95524.63;6166311;28;103368;-76
2022/09/24 06:46:24;;;;;;;4.53;4.13;;;;;;;21.58;34.94;95524.53;6160549;28;102792;-76
2022/09/24 06:49:28;;;;;;;4.20;3.80;;;;;;;21.68;35.31;95529.72;6166493;28;103049;-76
2022/09/24 06:52:36;;;;;;;4.30;3.90;;;;;;;21.73;35.21;95529.63;6165251;28;106401;-75
2022/09/24 06:55:41;;;;;;;4.53;4.13;;;;;;;21.80;35.34;95522.84;6163033;28;103105;-76
2022/09/24 06:58:44;;;;;;;4.37;4.07;;;;;;;21.84;35.21;95523.06;6161923;28;103645;-77
2022/09/24 07:01:47;;;;;;;4.50;4.20;;;;;;;21.80;35.44;95514.06;6165953;28;103614;-78
2022/09/24 07:04:50;;;;;;;4.47;4.07;;;;;;;21.87;34.97;95527.03;6165598;28;103139;-77
2022/09/24 07:07:54;;;;;;;4.23;3.93;;;;;;;21.89;34.98;95528.34;6159169;28;103450;-77
2022/09/24 07:10:59;;;;;;;4.53;4.23;;;;;;;21.94;35.30;95522.91;6164493;28;106265;-75
2022/09/24 07:14:02;;;;;;;4.10;3.80;;;;;;;21.95;35.38;95534.34;6164962;28;103001;-76
2022/09/24 07:17:05;;;;;;;4.10;3.80;;;;;;;22.00;35.19;95531.59;6165104;28;104590;-75
2022/09/24 07:20:09;;;;;;;4.90;4.50;;;;;;;22.02;34.94;95530.25;6159779;28;103124;-75
2022/09/24 07:23:13;;;;;;;4.20;3.90;;;;;;;22.05;34.90;95513.66;6165309;28;103019;-77
2022/09/24 07:26:17;;;;;;;4.10;3.70;;;;;;;22.06;35.04;95519.78;6165707;28;104535;-76
2022/09/24 07:29:20;;;;;;;4.00;3.70;;;;;;;22.13;35.19;95517.50;6164917;28;103176;-76
2022/09/24 07:32:24;;;;;;;4.70;4.40;;;;;;;22.15;35.03;95514.56;6159615;28;103557;-77
2022/09/24 07:35:32;;;;;;;4.20;3.90;;;;;;;22.20;35.26;95514.47;6165527;28;103265;-77
2022/09/24 07:38:35;;;;;;;5.03;4.53;;;;;;;22.25;34.90;95511.72;6164784;28;103457;-77
2022/09/24 07:41:41;;;;;;;4.67;4.37;;;;;;;22.19;35.32;95513.69;6159168;28;103757;-77
2022/09/24 07:44:44;;;;;;;4.60;4.20;;;;;;;22.27;35.37;95509.53;6163368;28;103583;-77
2022/09/24 07:47:47;;;;;;;4.50;4.10;;;;;;;22.29;35.01;95510.03;6164337;28;103465;-76
2022/09/24 07:50:50;;;;;;;4.57;4.17;;;;;;;22.33;34.93;95514.47;6164077;28;103534;-76
2022/09/24 07:53:54;;;;;;;4.13;3.83;;;;;;;22.32;35.27;95507.56;6158049;28;103802;-76
2022/09/24 07:57:01;;;;;;;4.40;4.10;;;;;;;22.37;35.01;95509.34;6164138;28;103090;-76
2022/09/24 08:00:05;;;;;;;4.17;3.87;;;;;;;22.35;35.48;95515.00;6164126;28;103096;-76
2022/09/24 08:03:09;;;;;;;3.90;3.60;;;;;;;22.31;35.05;95494.53;6164732;28;107417;-76
2022/09/24 08:06:12;;;;;;;3.90;3.70;;;;;;;22.38;35.29;95495.72;6156525;28;105376;-77
2022/09/24 08:09:15;;;;;;;4.40;4.07;;;;;;;22.44;35.11;95509.75;6164089;28;104306;-77
2022/09/24 08:12:20;;;;;;;5.00;4.50;;;;;;;22.40;35.54;95501.56;6163203;28;103431;-77
2022/09/24 08:15:23;;;;;;;4.50;4.10;;;;;;;22.47;35.09;95503.81;6161114;28;104985;-76
2022/09/24 08:18:27;;;;;;;4.13;3.83;;;;;;;22.51;35.61;95507.47;6161644;28;106411;-76
2022/09/24 08:21:32;;;;;;;4.50;4.17;;;;;;;22.51;35.19;95504.00;6164360;28;105322;-76
2022/09/24 08:24:36;;;;;;;4.03;3.77;;;;;;;22.53;35.56;95505.31;6163858;28;105111;-76
2022/09/24 08:27:40;;;;;;;4.77;4.43;;;;;;;22.49;35.38;95490.97;6157291;28;103018;-76
2022/09/24 08:30:44;;;;;;;4.67;4.27;;;;;;;22.50;35.53;95503.22;6164393;28;103710;-77
2022/09/24 08:33:49;;;;;;;4.20;3.90;;;;;;;22.58;35.61;95497.22;6163926;28;103515;-77
2022/09/24 08:36:52;;;;;;;4.57;4.27;;;;;;;22.56;35.62;95499.38;6163468;28;103440;-78
2022/09/24 08:39:56;;;;;;;4.10;3.80;;;;;;;22.60;35.20;95497.72;6156391;28;103398;-77
2022/09/24 08:43:13;;;;;;;4.27;3.83;;;;;;;22.56;35.43;95494.03;6162579;28;103188;-77
2022/09/24 08:49:50;;;;;;;4.53;4.13;;;;;;;22.60;35.35;95496.94;6102098;28;104401;-77
2022/09/24 08:53:06;;;;;;;4.20;3.90;;;;;;;22.56;35.76;95499.38;6162963;28;103780;-77
2022/09/24 08:56:11;;;;;;;4.20;3.90;;;;;;;22.58;35.38;95494.56;6163103;28;103384;-77
2022/09/24 08:59:26;;;;;;;4.53;4.23;;;;;;;22.58;35.81;95481.22;6163318;28;103071;-77
2022/09/24 09:02:40;;;;;;;4.63;4.27;;;;;;;22.53;35.68;95486.66;6156415;28;103179;-76
2022/09/24 09:05:52;;;;;;;4.57;4.27;;;;;;;22.51;35.68;95477.34;6163797;28;103405;-76
2022/09/24 09:09:04;;;;;;;4.10;3.80;;;;;;;22.53;35.34;95480.53;6163779;28;103374;-76
2022/09/24 09:12:14;;;;;;;4.50;4.20;;;;;;;22.51;35.33;95461.34;6159869;28;103501;-76
2022/09/24 09:15:24;;;;;;;4.90;4.50;;;;;;;22.53;36.03;95465.31;6159739;28;103512;-76
2022/09/24 09:18:36;;;;;;;4.20;3.90;;;;;;;22.53;35.84;95464.53;6167542;28;103230;-76
2022/09/24 09:21:41;;;;;;;4.67;4.30;;;;;;;22.47;35.35;95450.47;6167556;28;106513;-75
2022/09/24 09:24:48;;;;;;;4.70;4.30;;;;;;;22.58;35.95;95464.44;6161335;28;103137;-75
2022/09/24 09:27:57;;;;;;;4.20;3.90;;;;;;;22.56;35.48;95470.03;6167584;28;104579;-76
2022/09/24 09:31:08;;;;;;;4.20;3.90;;;;;;;22.51;35.48;95461.34;6167456;28;103471;-75
2022/09/24 09:34:30;;;;;;;4.20;3.90;;;;;;;22.48;35.21;95451.25;6167539;28;103392;-76
2022/09/24 09:37:39;;;;;;;3.77;3.47;;;;;;;22.50;35.69;95449.09;6163677;28;103171;-76
2022/09/24 09:40:50;;;;;;;3.87;3.57;;;;;;;22.53;35.77;95451.19;6167060;28;103038;-78
2022/09/24 09:43:59;;;;;;;4.37;4.07;;;;;;;22.55;35.82;95441.78;6166561;28;102949;-76
2022/09/24 09:47:16;;;;;;;4.50;4.10;;;;;;;22.53;35.46;95445.84;6160960;28;103368;-77
2022/09/24 09:50:26;;;;;;;4.70;4.30;;;;;;;22.50;36.07;95433.88;6166994;28;103165;-76
2022/09/24 09:53:31;;;;;;;4.40;3.97;;;;;;;22.53;35.60;95433.31;6166731;28;103379;-76
2022/09/24 09:56:37;;;;;;;3.77;3.47;;;;;;;22.52;35.80;95431.72;6166158;28;103025;-75
2022/09/24 09:59:40;;;;;;;4.43;4.13;;;;;;;22.53;35.70;95422.63;6160881;28;103543;-75
2022/09/24 10:02:52;;;;;;;4.37;4.00;;;;;;;22.53;36.09;95411.19;6166987;28;103033;-76
2022/09/24 10:05:58;;;;;;;4.23;3.93;;;;;;;22.51;35.88;95406.13;6166283;28;103109;-77
2022/09/24 10:09:13;;;;;;;4.00;3.70;;;;;;;22.48;35.73;95400.59;6164239;28;103398;-76
2022/09/24 10:12:20;;;;;;;4.47;4.17;;;;;;;22.48;35.61;95400.59;6164935;28;103779;-77
2022/09/24 10:15:24;;;;;;;4.07;3.77;;;;;;;22.45;35.71;95399.31;6166852;28;103933;-76
2022/09/24 10:18:32;;;;;;;4.10;3.80;;;;;;;22.46;35.83;95400.91;6165459;28;103548;-77
2022/09/24 10:21:37;;;;;;;5.17;3.73;;;;;;;22.43;35.82;95385.50;6159814;28;103242;-78
2022/09/24 10:24:43;;;;;;;4.87;4.47;;;;;;;22.40;35.82;95391.44;6166485;28;105396;-77
2022/09/24 10:27:47;;;;;;;5.13;4.73;;;;;;;22.36;35.86;95379.78;6165420;28;106355;-77
2022/09/24 10:30:55;;;;;;;4.60;4.23;;;;;;;22.37;36.23;95386.69;6166595;28;102670;-76
2022/09/24 10:34:01;;;;;;;4.10;3.80;;;;;;;22.35;36.22;95384.34;6160367;28;103289;-77
2022/09/24 10:37:14;;;;;;;4.50;4.20;;;;;;;22.34;36.38;95390.72;6165952;28;103770;-77
2022/09/24 10:40:23;;;;;;;4.10;3.80;;;;;;;22.33;35.87;95383.81;6166194;28;104508;-77
2022/09/24 10:43:26;;;;;;;4.37;4.07;;;;;;;22.28;36.04;95378.59;6160118;28;103321;-76
2022/09/24 10:46:58;;;;;;;4.27;3.97;;;;;;;22.29;36.40;95376.72;6165593;28;103251;-77
2022/09/24 10:50:26;;;;;;;4.10;3.80;;;;;;;22.27;36.20;95378.91;6164645;28;103307;-78
2022/09/24 10:53:41;;;;;;;4.47;4.17;;;;;;;22.24;36.19;95374.97;6165469;28;103052;-77
2022/09/24 10:56:50;;;;;;;4.60;4.20;;;;;;;22.20;36.29;95373.97;6158467;28;105341;-77
2022/09/24 11:00:03;;;;;;;4.70;4.30;;;;;;;22.20;36.22;95370.53;6165484;28;103195;-77
2022/09/24 11:03:25;;;;;;;4.60;4.20;;;;;;;22.20;36.50;95378.53;6165371;28;103288;-77
2022/09/24 11:06:47;;;;;;;4.33;4.03;;;;;;;22.15;36.15;95370.63;6159418;28;103549;-77
2022/09/24 11:09:55;;;;;;;4.80;4.40;;;;;;;22.17;36.52;95366.56;6165472;28;104094;-76
2022/09/24 11:13:10;;;;;;;4.63;4.33;;;;;;;22.15;36.09;95368.75;6165340;28;103101;-76
2022/09/24 11:16:39;;;;;;;3.90;3.70;;;;;;;22.08;36.55;95363.81;6164910;28;103389;-77
2022/09/24 11:20:03;;;;;;;4.50;4.10;;;;;;;22.09;36.28;95357.41;6160549;28;103459;-75
2022/09/24 11:23:41;;;;;;;4.67;4.27;;;;;;;22.10;36.56;95355.53;6164314;28;104174;-75
2022/09/24 11:26:59;;;;;;;5.00;4.60;;;;;;;22.07;36.38;95356.13;6164567;28;103575;-75
2022/09/24 11:30:10;;;;;;;4.33;4.00;;;;;;;22.03;36.18;95353.28;6158438;28;103183;-75
2022/09/24 11:33:28;;;;;;;5.57;5.17;;;;;;;22.02;36.74;95342.91;6164878;28;104242;-76
2022/09/24 11:36:44;;;;;;;5.43;4.93;;;;;;;21.97;36.42;95333.13;6164819;28;103503;-76
2022/09/24 11:40:04;;;;;;;5.00;4.60;;;;;;;21.91;36.39;95323.66;6159965;28;104284;-76
2022/09/24 11:43:31;;;;;;;4.93;4.63;;;;;;;21.92;36.95;95327.91;6164857;28;103553;-76
2022/09/24 11:46:47;;;;;;;5.47;5.07;;;;;;;21.90;36.88;95318.63;6164784;28;106193;-76
2022/09/24 11:50:06;;;;;;;5.70;5.30;;;;;;;21.87;36.69;95313.91;6164019;28;103258;-74
2022/09/24 11:53:14;;;;;;;5.60;5.20;;;;;;;21.86;36.71;95309.66;6158099;28;103412;-76
2022/09/24 11:56:23;;;;;;;5.60;5.13;;;;;;;21.82;36.99;95312.09;6162961;28;104046;-76
2022/09/24 11:59:35;;;;;;;5.83;5.43;;;;;;;21.84;36.89;95315.25;6164344;28;103008;-76
2022/09/24 12:02:43;;;;;;;6.00;5.50;;;;;;;21.78;37.10;95290.59;6158176;28;103044;-75
2022/09/24 12:05:55;;;;;;;5.70;5.27;;;;;;;21.80;36.92;95309.72;6164460;28;104006;-76
2022/09/24 12:09:01;;;;;;;6.53;5.93;;;;;;;21.76;36.65;95303.41;6164116;28;103402;-76
2022/09/24 12:12:11;;;;;;;5.67;5.27;;;;;;;21.78;36.69;95298.56;6163502;28;103472;-76
2022/09/24 12:15:18;;;;;;;6.43;5.90;;;;;;;21.75;36.74;95296.50;6157792;28;103400;-76
2022/09/24 12:18:26;;;;;;;6.33;5.83;;;;;;;21.65;37.09;95278.06;6165604;28;106433;-77
2022/09/24 12:21:34;;;;;;;6.37;5.87;;;;;;;21.75;36.70;95293.06;6165153;28;103885;-76
2022/09/24 12:24:42;;;;;;;6.40;5.90;;;;;;;21.75;37.36;95299.16;6162286;28;103096;-76
2022/09/24 12:27:48;;;;;;;6.37;5.87;;;;;;;21.72;36.76;95297.09;6160766;28;103842;-76
2022/09/24 12:34:27;;;;;;;6.47;5.97;;;;;;;21.71;36.86;95294.75;6164896;28;103654;-76
2022/09/24 12:37:37;;;;;;;6.00;5.50;;;;;;;21.65;36.93;95282.59;6158441;28;103391;-76
2022/09/24 12:41:05;;;;;;;6.70;6.20;;;;;;;21.71;36.82;95298.19;6165057;28;103709;-77
2022/09/24 12:44:18;;;;;;;6.47;5.97;;;;;;;21.70;36.75;95295.81;6165051;28;104403;-77
2022/09/24 12:47:27;;;;;;;6.70;6.10;;;;;;;21.69;36.74;95292.38;6162003;28;103037;-77
2022/09/24 12:50:33;;;;;;;6.60;6.10;;;;;;;21.69;36.92;95288.94;6160716;28;103559;-77
2022/09/24 12:53:40;;;;;;;6.90;6.30;;;;;;;21.66;36.76;95279.63;6165749;28;103326;-78
2022/09/24 12:57:04;;;;;;;6.63;6.13;;;;;;;21.69;36.74;95275.59;6169855;28;102848;-80
2022/09/24 13:00:40;;;;;;;6.50;5.90;;;;;;;21.68;36.80;95277.47;6162765;28;105400;-79
2022/09/24 13:03:43;;;;;;;6.57;6.03;;;;;;;21.67;36.84;95277.75;6166833;28;103883;-80
2022/09/24 13:06:49;;;;;;;6.70;6.20;;;;;;;21.57;36.69;95260.13;6166655;28;105728;-81
2022/09/24 13:13:24;;;;;;;7.73;7.13;;;;;;;21.64;37.01;95265.81;6164095;28;102635;-81
2022/09/24 13:16:33;;;;;;;6.47;5.97;;;;;;;21.64;36.94;95276.47;6165624;28;103180;-81
2022/09/24 13:19:41;;;;;;;6.43;5.93;;;;;;;21.64;36.71;95271.16;6164895;28;103421;-81
2022/09/24 13:22:57;;;;;;;7.30;6.73;;;;;;;21.62;37.05;95264.56;6159633;28;103520;-80
2022/09/24 13:26:09;;;;;;;6.33;5.83;;;;;;;21.63;36.83;95260.78;6164622;28;103312;-80
2022/09/24 13:29:24;;;;;;;7.47;6.87;;;;;;;21.61;37.04;95257.66;6166552;28;103243;-78
2022/09/24 13:32:34;;;;;;;7.80;7.20;;;;;;;21.59;36.93;95255.28;6163757;28;103114;-80
2022/09/24 13:35:45;;;;;;;6.93;6.37;;;;;;;21.58;37.16;95248.38;6158542;28;104508;-80
2022/09/24 13:38:56;;;;;;;7.00;6.50;;;;;;;21.54;37.29;95241.28;6162929;28;103548;-81
2022/09/24 13:42:06;;;;;;;7.47;6.87;;;;;;;21.48;37.00;95237.91;6163843;28;103115;-80
2022/09/24 13:45:15;;;;;;;7.60;7.00;;;;;;;21.55;36.96;95241.00;6156595;28;103034;-80
2022/09/24 13:48:33;;;;;;;7.47;6.87;;;;;;;21.57;37.15;95248.69;6163380;28;103637;-80
2022/09/24 13:51:40;;;;;;;7.70;7.13;;;;;;;21.53;37.21;95237.84;6162846;28;103314;-81
2022/09/24 13:54:49;;;;;;;7.40;6.80;;;;;;;21.53;36.97;95237.84;6162761;28;106197;-81
2022/09/24 13:57:52;;;;;;;7.30;6.70;;;;;;;21.52;37.01;95242.38;6155460;28;103450;-80
2022/09/24 14:00:58;;;;;;;7.10;6.50;;;;;;;21.52;36.93;95234.38;6162901;28;103600;-81
2022/09/24 14:04:05;;;;;;;7.43;6.83;;;;;;;21.52;37.36;95233.59;6166071;28;103097;-80
2022/09/24 14:07:09;;;;;;;7.40;6.80;;;;;;;21.47;37.15;95237.13;6163865;28;104397;-80
2022/09/24 14:10:16;;;;;;;7.17;6.57;;;;;;;21.49;36.92;95232.28;6163761;28;103463;-80
2022/09/24 14:13:22;;;;;;;7.63;7.00;;;;;;;21.48;37.24;95228.06;6167251;28;104592;-81
2022/09/24 14:16:26;;;;;;;7.67;7.07;;;;;;;21.48;37.30;95228.06;6166769;28;103550;-80
2022/09/24 14:19:33;;;;;;;7.73;7.13;;;;;;;21.49;37.19;95234.16;6160273;28;103265;-79
2022/09/24 14:22:42;;;;;;;8.27;7.60;;;;;;;21.45;37.16;95226.00;6166788;28;105309;-80
2022/09/24 14:25:47;;;;;;;7.70;7.10;;;;;;;21.46;37.21;95224.13;6167209;28;103083;-80
2022/09/24 14:28:51;;;;;;;7.60;7.00;;;;;;;21.46;37.46;95221.47;6166824;28;103207;-80
2022/09/24 14:31:58;;;;;;;8.47;7.77;;;;;;;21.46;37.43;95224.91;6159861;28;103659;-80
2022/09/24 14:35:07;;;;;;;7.87;7.27;;;;;;;21.44;37.50;95221.75;6165535;28;103026;-80
2022/09/24 14:38:15;;;;;;;8.10;7.40;;;;;;;21.45;37.30;95227.88;6166354;28;103287;-81
2022/09/24 14:41:22;;;;;;;8.67;7.97;;;;;;;21.44;37.41;95223.63;6162278;28;103054;-81
2022/09/24 14:44:28;;;;;;;8.23;7.53;;;;;;;21.42;37.38;95229.25;6163153;28;105020;-80
2022/09/24 14:47:33;;;;;;;8.30;7.60;;;;;;;21.44;37.45;95232.41;6166242;28;105731;-79
2022/09/24 14:50:40;;;;;;;8.13;7.50;;;;;;;21.43;37.43;95225.50;6166013;28;103253;-81